Time;durP1;ratioP1;P1;durP2;ratioP2;P2;SDS_P1;SDS_P2;PMS_P1;PMS_P2;Temp;Humidity;BMP_temperature;BMP_pressure;BME280_temperature;BME280_humidity;BME280_pressure;Samples;Min_cycle;Max_cycle;Signal;HPM_P1;HPM_P2
2022/02/08 00:01:40;;;;;;;5.35;1.55;;;15.80;60.40;;;;;;5057732;22;20059;-54
2022/02/08 00:04:06;;;;;;;4.10;1.50;;;15.80;60.40;;;;;;5057928;28;20036;-54
2022/02/08 00:06:46;;;;;;;7.63;1.48;;;15.80;60.40;;;;;;5053068;28;20033;-57
2022/02/08 00:09:13;;;;;;;4.38;1.58;;;15.80;60.40;;;;;;5027129;28;20247;-56
2022/02/08 00:11:39;;;;;;;4.90;1.58;;;15.80;60.40;;;;;;5038147;28;20486;-58
2022/02/08 00:14:04;;;;;;;3.85;1.40;;;15.80;60.40;;;;;;5050181;28;20132;-55
2022/02/08 00:16:30;;;;;;;3.60;1.60;;;15.80;60.40;;;;;;5055828;28;20033;-56
2022/02/08 00:18:55;;;;;;;3.22;1.63;;;15.80;60.40;;;;;;5051086;28;20029;-56
2022/02/08 00:21:21;;;;;;;4.10;1.90;;;15.80;60.30;;;;;;5051493;28;20035;-58
2022/02/08 00:23:46;;;;;;;2.75;1.65;;;15.80;60.40;;;;;;5028913;28;20059;-54
2022/02/08 00:26:12;;;;;;;3.08;1.42;;;15.80;60.40;;;;;;5056304;28;20040;-51
2022/02/08 00:28:37;;;;;;;5.97;1.50;;;15.80;60.30;;;;;;5031703;28;20041;-54
2022/02/08 00:31:03;;;;;;;3.38;1.25;;;15.80;60.30;;;;;;5059394;28;20443;-56
2022/02/08 00:33:28;;;;;;;2.30;1.00;;;15.80;60.90;;;;;;5034691;28;20040;-55
2022/02/08 00:35:54;;;;;;;3.90;1.63;;;15.80;60.30;;;;;;5035241;28;20027;-60
2022/02/08 00:38:19;;;;;;;3.45;1.50;;;15.80;60.20;;;;;;5032417;28;20227;-58
2022/02/08 00:40:47;;;;;;;5.85;1.63;;;15.80;60.20;;;;;;5038598;28;20028;-54
2022/02/08 00:43:16;;;;;;;3.17;1.20;;;15.80;60.20;;;;;;5030751;28;21462;-58
2022/02/08 00:45:55;;;;;;;4.93;1.67;;;15.80;60.20;;;;;;5046266;28;20338;-58
2022/02/08 00:48:31;;;;;;;3.50;1.52;;;15.80;60.20;;;;;;5034130;28;20032;-58
2022/02/08 00:50:56;;;;;;;4.45;1.67;;;15.80;60.20;;;;;;5055042;28;20054;-56
2022/02/08 00:53:22;;;;;;;4.95;1.55;;;15.80;60.20;;;;;;5020939;28;20030;-58
2022/02/08 00:55:47;;;;;;;3.45;1.40;;;15.80;60.20;;;;;;5049740;28;20431;-56
2022/02/08 00:58:13;;;;;;;4.25;1.40;;;15.80;60.20;;;;;;5033364;28;20037;-53
2022/02/08 01:00:39;;;;;;;4.13;1.60;;;15.80;60.20;;;;;;5035067;28;20020;-57
2022/02/08 01:03:05;;;;;;;3.40;1.40;;;15.80;60.20;;;;;;5039693;28;20048;-58
2022/02/08 01:05:30;;;;;;;4.82;1.42;;;15.80;60.10;;;;;;5012156;28;20033;-58
2022/02/08 01:07:56;;;;;;;4.80;1.45;;;15.80;60.10;;;;;;5030208;28;20395;-57
2022/02/08 01:10:23;;;;;;;3.80;1.35;;;15.80;60.10;;;;;;5049200;28;20021;-54
2022/02/08 01:12:49;;;;;;;2.42;1.30;;;15.80;60.00;;;;;;5020862;28;20478;-58
2022/02/08 01:15:15;;;;;;;4.53;1.65;;;15.80;60.00;;;;;;5042589;28;20083;-57
2022/02/08 01:17:41;;;;;;;3.17;1.25;;;15.80;60.00;;;;;;5036434;28;20022;-58
2022/02/08 01:20:12;;;;;;;3.35;1.13;;;15.80;59.90;;;;;;5023396;28;20056;-57
2022/02/08 01:22:40;;;;;;;3.42;1.23;;;15.80;59.90;;;;;;5040395;28;20024;-54
2022/02/08 01:25:08;;;;;;;2.97;1.38;;;15.80;60.00;;;;;;5022816;28;20047;-54
2022/02/08 01:27:40;;;;;;;4.53;1.42;;;15.80;59.90;;;;;;5036899;28;20016;-55
2022/02/08 01:30:13;;;;;;;3.90;1.40;;;15.80;59.80;;;;;;5043256;28;20643;-57
2022/02/08 01:35:43;;;;;;;2.05;1.02;;;15.80;59.80;;;;;;5047692;28;20059;-58
2022/02/08 01:38:22;;;;;;;3.78;1.27;;;15.80;59.80;;;;;;5055559;28;20501;-55
2022/02/08 01:41:08;;;;;;;3.60;1.20;;;15.80;59.80;;;;;;5053768;28;20096;-51
2022/02/08 01:44:05;;;;;;;4.72;1.20;;;15.80;59.80;;;;;;5049065;28;20029;-54
2022/02/08 01:49:30;;;;;;;2.22;1.00;;;15.80;59.80;;;;;;5050752;28;20044;-51
2022/02/08 01:51:56;;;;;;;1.50;1.05;;;15.80;59.70;;;;;;5050541;28;20029;-55
2022/02/08 01:54:22;;;;;;;5.20;1.30;;;15.70;59.70;;;;;;5040248;28;20029;-53
2022/02/08 01:56:48;;;;;;;2.70;1.00;;;15.80;59.70;;;;;;5039866;28;20386;-52
2022/02/08 01:59:14;;;;;;;6.93;1.27;;;15.80;59.70;;;;;;5023123;28;20025;-53
2022/02/08 02:01:40;;;;;;;3.88;1.30;;;15.80;59.60;;;;;;5031077;28;20049;-50
2022/02/08 02:04:05;;;;;;;4.38;1.30;;;15.80;59.60;;;;;;5047296;28;20033;-55
2022/02/08 02:06:31;;;;;;;3.58;1.13;;;15.70;59.60;;;;;;5052708;28;20024;-61
2022/02/08 02:08:56;;;;;;;2.67;0.80;;;15.70;59.60;;;;;;5021801;28;20084;-59
2022/02/08 02:11:22;;;;;;;4.85;1.30;;;15.70;59.60;;;;;;5029761;28;20043;-53
2022/02/08 02:13:49;;;;;;;2.72;1.00;;;15.80;59.60;;;;;;5053066;28;20024;-57
2022/02/08 02:16:20;;;;;;;2.65;1.40;;;15.80;59.60;;;;;;5043492;28;20036;-60
2022/02/08 02:18:46;;;;;;;3.28;1.42;;;15.80;59.60;;;;;;5055476;28;20032;-54
2022/02/08 02:21:12;;;;;;;5.70;1.25;;;15.70;59.60;;;;;;5016722;28;20045;-51
2022/02/08 02:23:38;;;;;;;3.92;1.60;;;15.80;59.60;;;;;;5025556;28;20069;-56
2022/02/08 02:26:03;;;;;;;3.90;1.10;;;15.80;59.60;;;;;;5046489;28;20086;-56
2022/02/08 02:28:29;;;;;;;3.28;1.08;;;15.70;59.60;;;;;;5060236;28;20068;-50
2022/02/08 02:30:54;;;;;;;3.35;1.23;;;15.70;59.50;;;;;;5034360;28;20032;-50
2022/02/08 02:33:20;;;;;;;3.22;1.30;;;15.70;60.20;;;;;;5051217;28;20459;-53
2022/02/08 02:35:47;;;;;;;3.03;1.35;;;15.70;59.50;;;;;;5041383;28;20033;-59
2022/02/08 02:38:12;;;;;;;3.05;1.77;;;15.70;59.60;;;;;;5034047;28;20033;-48
2022/02/08 02:40:42;;;;;;;4.00;1.30;;;15.70;59.60;;;;;;5025071;28;20024;-52
2022/02/08 02:43:09;;;;;;;2.47;1.13;;;15.70;59.60;;;;;;5060429;28;20115;-52
2022/02/08 02:45:35;;;;;;;2.47;1.23;;;15.70;59.50;;;;;;5017160;28;20732;-55
2022/02/08 02:48:00;;;;;;;2.53;0.90;;;15.70;59.50;;;;;;5034453;28;20120;-54
2022/02/08 02:50:26;;;;;;;3.72;1.17;;;15.80;59.60;;;;;;5046792;28;20017;-52
2022/02/08 02:52:51;;;;;;;2.75;1.50;;;15.70;59.60;;;;;;5052718;28;20087;-54
2022/02/08 02:55:17;;;;;;;4.38;1.10;;;15.70;59.50;;;;;;5026775;28;20026;-55
2022/02/08 02:57:45;;;;;;;2.30;1.20;;;15.70;59.50;;;;;;5018342;28;20719;-55
2022/02/08 03:00:13;;;;;;;2.78;1.05;;;15.70;59.40;;;;;;5009117;28;20021;-60
2022/02/08 03:02:54;;;;;;;3.28;1.38;;;15.80;59.50;;;;;;5048809;28;20673;-57
2022/02/08 03:05:48;;;;;;;2.47;0.80;;;15.70;59.40;;;;;;5046862;28;20112;-48
2022/02/08 03:19:10;;;;;;;5.50;1.17;;;15.70;59.40;;;;;;5047830;28;20036;-50
2022/02/08 03:21:36;;;;;;;2.75;1.42;;;15.70;59.80;;;;;;5028942;28;20021;-54
2022/02/08 03:24:01;;;;;;;3.42;1.02;;;15.70;59.40;;;;;;5025076;28;20087;-57
2022/02/08 03:26:26;;;;;;;2.63;1.20;;;15.70;59.40;;;;;;5039798;28;20491;-51
2022/02/08 03:28:52;;;;;;;3.28;1.23;;;15.70;59.40;;;;;;5046782;28;20107;-53
2022/02/08 03:31:18;;;;;;;3.05;1.10;;;15.70;59.30;;;;;;5049442;28;20032;-59
2022/02/08 03:33:46;;;;;;;3.05;1.08;;;15.70;59.30;;;;;;5044475;28;20045;-58
2022/02/08 03:36:11;;;;;;;3.08;0.98;;;15.70;59.30;;;;;;5054098;28;20102;-57
2022/02/08 03:38:41;;;;;;;2.08;1.02;;;15.70;59.30;;;;;;5006546;28;20514;-52
2022/02/08 03:41:08;;;;;;;2.45;1.17;;;15.70;59.20;;;;;;5052641;28;20083;-56
2022/02/08 03:43:37;;;;;;;2.55;1.10;;;15.70;59.20;;;;;;5031149;28;20120;-51
2022/02/08 03:46:06;;;;;;;2.85;1.05;;;15.70;59.20;;;;;;5048975;28;20052;-51
2022/02/08 03:48:34;;;;;;;3.65;1.38;;;15.70;59.20;;;;;;5055140;28;20513;-58
2022/02/08 03:51:14;;;;;;;2.10;0.93;;;15.70;59.20;;;;;;5021450;28;20048;-50
2022/02/08 03:53:43;;;;;;;2.78;0.95;;;15.70;59.20;;;;;;5045240;28;20108;-52
2022/02/08 03:56:08;;;;;;;3.33;1.10;;;15.70;59.20;;;;;;5024214;28;20060;-59
2022/02/08 03:58:34;;;;;;;2.45;1.02;;;15.70;59.20;;;;;;5022882;28;20060;-57
2022/02/08 04:03:34;;;;;;;1.83;0.70;;;15.70;59.10;;;;;;5053036;28;20025;-57
2022/02/08 04:06:01;;;;;;;3.78;1.30;;;15.70;59.10;;;;;;5027880;28;20040;-60
2022/02/08 04:08:29;;;;;;;2.63;1.58;;;15.70;59.10;;;;;;5028824;28;20025;-55
2022/02/08 04:10:58;;;;;;;2.53;0.88;;;15.70;59.10;;;;;;5054566;28;20032;-57
2022/02/08 04:13:29;;;;;;;2.00;1.10;;;15.70;59.10;;;;;;5022709;28;20028;-53
2022/02/08 04:16:23;;;;;;;4.45;1.13;;;15.70;59.10;;;;;;5014715;28;20044;-57
2022/02/08 04:19:08;;;;;;;2.20;1.40;;;15.70;59.20;;;;;;5029170;28;20108;-57
2022/02/08 04:32:59;;;;;;;2.78;0.95;;;15.70;59.10;;;;;;4997748;28;20468;-53
2022/02/08 04:35:38;;;;;;;2.42;1.23;;;15.70;59.10;;;;;;5025263;28;20099;-49
2022/02/08 04:38:19;;;;;;;3.38;1.00;;;15.70;59.10;;;;;;5052662;28;20032;-58
2022/02/08 04:40:59;;;;;;;4.55;1.42;;;15.70;59.10;;;;;;5058693;28;20130;-49
2022/02/08 04:48:55;;;;;;;1.58;0.68;;;15.70;59.10;;;;;;5010123;28;20520;-51
2022/02/08 04:51:27;;;;;;;2.72;1.30;;;15.70;59.10;;;;;;5054477;28;20029;-48
2022/02/08 04:54:01;;;;;;;2.33;0.98;;;15.70;59.10;;;;;;5034807;28;20029;-53
2022/02/08 04:59:18;;;;;;;3.20;1.10;;;15.70;59.10;;;;;;5037702;28;20402;-51
2022/02/08 05:34:36;;;;;;;1.60;0.80;;;15.70;59.00;;;;;;5038948;28;20396;-56
2022/02/08 05:37:22;;;;;;;1.73;0.82;;;15.70;59.00;;;;;;5036034;28;20029;-58
2022/02/08 05:42:48;;;;;;;2.70;1.15;;;15.70;59.00;;;;;;5042965;28;20044;-62
2022/02/08 05:47:46;;;;;;;2.55;0.80;;;15.70;59.00;;;;;;5017332;28;20033;-59
2022/02/08 05:53:29;;;;;;;3.60;0.88;;;15.70;58.80;;;;;;5036067;28;20025;-52
2022/02/08 05:55:41;;;;;;;3.13;0.70;;;15.70;58.80;;;;;;5030565;28;20028;-55
2022/02/08 05:58:07;;;;;;;1.85;0.85;;;15.70;58.80;;;;;;5036281;28;20041;-56
2022/02/08 06:00:32;;;;;;;1.88;1.02;;;15.70;58.80;;;;;;5062143;28;20037;-62
2022/02/08 06:03:03;;;;;;;2.83;0.93;;;15.80;58.90;;;;;;5027744;28;20195;-52
2022/02/08 06:05:29;;;;;;;3.83;0.82;;;15.70;58.80;;;;;;5051279;28;20104;-57
2022/02/08 06:07:54;;;;;;;3.10;1.10;;;15.70;58.80;;;;;;5035843;28;20558;-51
2022/02/08 06:10:20;;;;;;;1.92;0.80;;;15.70;58.80;;;;;;5016278;28;20493;-53
2022/02/08 06:12:51;;;;;;;1.98;0.95;;;15.70;58.80;;;;;;5040954;28;20028;-53
2022/02/08 06:15:19;;;;;;;4.07;0.80;;;15.70;58.90;;;;;;5043083;28;20366;-52
2022/02/08 06:17:46;;;;;;;3.70;1.05;;;15.70;58.80;;;;;;5032999;28;20021;-53
2022/02/08 06:20:12;;;;;;;4.03;1.00;;;15.70;58.80;;;;;;5029344;28;20029;-59
2022/02/08 06:22:40;;;;;;;2.35;0.90;;;15.70;58.80;;;;;;5032019;28;20037;-60
2022/02/08 06:25:07;;;;;;;4.45;1.75;;;15.70;58.80;;;;;;5027336;28;20759;-51
2022/02/08 06:27:33;;;;;;;7.82;2.85;;;15.70;58.90;;;;;;5037102;28;20120;-56
2022/02/08 06:29:59;;;;;;;8.50;3.85;;;15.70;58.90;;;;;;5056686;28;20112;-55
2022/02/08 06:32:26;;;;;;;26.10;11.48;;;15.70;58.90;;;;;;5019343;28;20119;-58
2022/02/08 06:34:54;;;;;;;42.72;17.80;;;15.70;59.10;;;;;;5013361;28;20059;-50
2022/02/08 06:37:21;;;;;;;40.25;16.85;;;15.70;59.20;;;;;;5046784;28;20494;-55
2022/02/08 06:39:47;;;;;;;31.63;15.00;;;15.70;59.20;;;;;;5036934;28;20035;-55
2022/02/08 06:42:12;;;;;;;32.65;14.10;;;15.60;59.20;;;;;;5014466;28;20033;-59
2022/02/08 06:44:38;;;;;;;27.33;12.50;;;15.60;59.20;;;;;;5038280;28;20050;-50
2022/02/08 06:47:03;;;;;;;27.70;11.65;;;15.60;59.40;;;;;;5038152;28;20538;-52
2022/02/08 06:49:30;;;;;;;21.48;10.23;;;15.60;59.40;;;;;;5032022;28;20048;-49
2022/02/08 06:51:55;;;;;;;25.52;10.23;;;15.70;59.40;;;;;;5051865;28;20025;-52
2022/02/08 06:54:21;;;;;;;20.83;10.02;;;15.70;59.50;;;;;;5032712;28;20036;-57
2022/02/08 06:56:47;;;;;;;23.02;9.02;;;15.70;59.40;;;;;;5024269;28;20029;-48
2022/02/08 06:59:16;;;;;;;24.48;9.73;;;15.70;59.40;;;;;;5044520;28;20029;-51
2022/02/08 07:01:41;;;;;;;25.02;9.63;;;15.70;59.40;;;;;;5029178;28;20036;-53
2022/02/08 07:04:10;;;;;;;23.33;8.95;;;15.70;59.40;;;;;;5029143;28;20044;-62
2022/02/08 07:06:35;;;;;;;18.67;7.80;;;15.70;59.30;;;;;;5045371;28;20033;-58
2022/02/08 07:09:01;;;;;;;20.70;8.10;;;15.70;59.20;;;;;;5038226;28;20498;-51
2022/02/08 07:11:26;;;;;;;16.52;7.03;;;15.70;59.10;;;;;;5039194;28;20028;-56
2022/02/08 07:13:53;;;;;;;22.30;6.95;;;15.60;59.00;;;;;;5018927;28;20041;-52
2022/02/08 07:16:19;;;;;;;39.85;7.68;;;15.60;58.90;;;;;;5013185;28;20035;-51
2022/02/08 07:18:44;;;;;;;11.65;6.13;;;15.70;58.80;;;;;;5028279;28;20024;-52
2022/02/08 07:21:11;;;;;;;10.90;5.70;;;15.60;58.60;;;;;;5022824;28;20037;-60
2022/02/08 07:23:36;;;;;;;15.60;6.30;;;15.70;58.80;;;;;;5053406;28;20029;-54
2022/02/08 07:26:02;;;;;;;15.68;5.55;;;15.70;58.60;;;;;;5037591;28;20627;-61
2022/02/08 07:28:27;;;;;;;10.45;4.22;;;15.60;59.20;;;;;;5055706;28;20461;-52
2022/02/08 07:31:01;;;;;;;10.55;4.18;;;15.60;58.90;;;;;;5010789;28;20063;-57
2022/02/08 07:33:26;;;;;;;17.52;4.50;;;15.60;58.80;;;;;;5022371;28;20045;-59
2022/02/08 07:38:29;;;;;;;9.48;3.88;;;15.70;58.80;;;;;;5043325;28;20036;-56
2022/02/08 07:43:20;;;;;;;13.95;4.40;;;15.70;58.80;;;;;;5057245;28;20040;-56
2022/02/08 07:45:46;;;;;;;9.05;4.18;;;15.70;58.80;;;;;;5033556;28;20574;-52
2022/02/08 07:48:12;;;;;;;12.43;4.35;;;15.70;58.70;;;;;;5029533;28;20390;-53
2022/02/08 07:50:40;;;;;;;15.07;4.53;;;15.80;58.80;;;;;;5021005;28;20025;-57
2022/02/08 07:53:09;;;;;;;10.20;4.35;;;15.70;58.90;;;;;;5037005;28;20497;-54
2022/02/08 07:55:34;;;;;;;12.18;4.97;;;15.80;59.00;;;;;;5054357;28;20035;-49
2022/02/08 07:58:00;;;;;;;17.80;4.40;;;15.80;59.00;;;;;;5055832;28;20037;-54
2022/02/08 08:00:25;;;;;;;9.40;4.68;;;15.80;58.90;;;;;;5053490;28;20024;-52
2022/02/08 08:02:53;;;;;;;8.63;3.85;;;15.80;59.00;;;;;;5056066;28;20064;-53
2022/02/08 08:05:18;;;;;;;8.45;3.50;;;15.80;58.90;;;;;;5050861;28;20486;-54
2022/02/08 08:07:45;;;;;;;13.35;5.63;;;15.80;58.90;;;;;;5060129;28;20082;-56
2022/02/08 08:10:17;;;;;;;16.55;5.78;;;15.80;59.70;;;;;;5050654;28;20033;-51
2022/02/08 08:12:47;;;;;;;11.68;5.30;;;15.80;60.00;;;;;;5046637;28;20068;-52
2022/02/08 08:15:25;;;;;;;12.82;5.55;;;15.80;59.80;;;;;;5052427;28;20090;-54
2022/02/08 08:17:58;;;;;;;15.25;5.82;;;15.80;59.70;;;;;;5032149;28;20620;-49
2022/02/08 08:20:24;;;;;;;12.55;4.85;;;15.70;59.60;;;;;;5056520;28;20029;-53
2022/02/08 08:22:49;;;;;;;14.05;5.43;;;15.80;59.50;;;;;;5048501;28;20383;-57
2022/02/08 08:25:15;;;;;;;13.50;5.57;;;15.80;59.40;;;;;;5055023;28;20498;-54
2022/02/08 08:27:41;;;;;;;13.13;6.15;;;15.80;60.10;;;;;;5057911;28;20031;-60
2022/02/08 08:30:09;;;;;;;19.83;6.47;;;15.80;60.30;;;;;;5048048;28;20051;-52
2022/02/08 08:32:36;;;;;;;12.90;6.43;;;15.80;60.40;;;;;;5041102;28;20029;-55
2022/02/08 08:35:01;;;;;;;14.13;5.47;;;15.80;60.40;;;;;;5049212;28;20033;-56
2022/02/08 08:37:27;;;;;;;9.82;5.07;;;15.80;60.40;;;;;;5027881;28;20036;-52
2022/02/08 08:39:54;;;;;;;14.15;5.78;;;15.80;60.40;;;;;;5050027;28;20037;-57
2022/02/08 08:42:43;;;;;;;12.07;5.60;;;15.80;60.40;;;;;;5057630;28;20040;-57
2022/02/08 08:48:29;;;;;;;13.95;7.28;;;15.90;60.50;;;;;;5049222;28;20086;-53
2022/02/08 08:53:09;;;;;;;12.30;5.47;;;15.80;60.10;;;;;;5057993;28;20413;-56
2022/02/08 08:55:35;;;;;;;12.10;5.30;;;15.90;60.30;;;;;;5056898;28;20037;-50
2022/02/08 08:58:00;;;;;;;11.88;6.07;;;15.90;60.10;;;;;;5051947;28;20028;-59
2022/02/08 09:00:26;;;;;;;10.85;5.35;;;15.90;60.20;;;;;;5049196;28;20025;-58
2022/02/08 09:02:52;;;;;;;10.38;5.10;;;15.90;60.10;;;;;;5050421;28;20043;-51
2022/02/08 09:05:20;;;;;;;9.05;4.65;;;15.90;60.10;;;;;;5058893;28;20440;-62
2022/02/08 09:07:45;;;;;;;9.90;4.70;;;15.90;60.00;;;;;;5029135;28;20029;-57
2022/02/08 09:10:15;;;;;;;11.18;4.22;;;15.90;60.10;;;;;;5029352;28;20041;-60
2022/02/08 09:28:59;;;;;;;7.32;4.10;;;15.90;60.30;;;;;;5014769;28;20137;-50
2022/02/08 09:31:24;;;;;;;5.28;3.22;;;16.00;60.60;;;;;;5014518;28;20575;-51
2022/02/08 09:33:50;;;;;;;6.05;3.22;;;15.90;60.60;;;;;;5056874;28;20033;-57
2022/02/08 09:36:16;;;;;;;8.43;2.92;;;15.90;60.70;;;;;;5048606;28;20036;-52
2022/02/08 09:38:42;;;;;;;6.32;3.25;;;15.90;60.80;;;;;;5033142;28;20398;-60
2022/02/08 09:41:08;;;;;;;4.38;2.80;;;16.00;60.90;;;;;;5051163;28;20090;-52
2022/02/08 09:43:34;;;;;;;7.07;3.28;;;15.90;60.80;;;;;;5025968;28;20107;-61
2022/02/08 09:46:01;;;;;;;7.10;3.05;;;16.00;61.00;;;;;;5030511;28;20439;-53
2022/02/08 09:48:46;;;;;;;5.38;2.80;;;16.00;61.00;;;;;;5049175;28;20563;-53
2022/02/08 09:51:12;;;;;;;6.82;2.88;;;16.00;61.10;;;;;;5029563;28;20060;-53
2022/02/08 09:53:40;;;;;;;6.47;2.45;;;16.00;61.00;;;;;;5022310;28;20034;-54
2022/02/08 09:56:07;;;;;;;7.25;3.10;;;16.00;61.10;;;;;;5055692;28;20508;-55
2022/02/08 09:58:33;;;;;;;6.53;2.40;;;16.00;61.00;;;;;;5056355;28;20043;-60
2022/02/08 10:01:18;;;;;;;6.47;3.30;;;16.00;61.00;;;;;;5056867;28;20062;-59
2022/02/08 10:04:00;;;;;;;6.50;2.80;;;16.00;61.10;;;;;;5020502;28;20036;-56
2022/02/08 10:06:26;;;;;;;6.07;3.03;;;16.00;61.00;;;;;;5028449;28;20091;-57
2022/02/08 10:09:05;;;;;;;6.50;2.53;;;16.10;61.00;;;;;;5033708;28;20041;-54
2022/02/08 10:11:53;;;;;;;4.45;2.20;;;16.10;61.00;;;;;;5044809;28;20535;-52
2022/02/08 10:22:36;;;;;;;4.22;2.45;;;16.10;61.00;;;;;;5030182;28;20043;-54
2022/02/08 10:25:11;;;;;;;5.95;2.08;;;16.20;61.20;;;;;;5006270;28;20045;-55
2022/02/08 10:27:40;;;;;;;10.05;2.63;;;16.20;61.20;;;;;;5012225;28;20033;-56
2022/02/08 10:38:40;;;;;;;5.30;2.38;;;16.20;61.10;;;;;;5026106;28;20055;-59
2022/02/08 10:41:10;;;;;;;5.60;2.60;;;16.20;61.20;;;;;;5020391;28;20041;-53
2022/02/08 10:43:37;;;;;;;3.17;2.08;;;16.20;61.10;;;;;;5040196;28;20486;-53
2022/02/08 10:46:03;;;;;;;4.30;2.40;;;16.20;61.10;;;;;;5053418;28;20121;-59
2022/02/08 10:48:29;;;;;;;6.65;2.05;;;16.20;61.10;;;;;;5019684;28;20554;-53
2022/02/08 10:50:57;;;;;;;4.63;2.17;;;16.20;61.10;;;;;;5047506;28;20029;-53
2022/02/08 10:53:25;;;;;;;3.97;1.88;;;16.20;61.10;;;;;;5022531;22;20056;-68
2022/02/08 10:56:08;;;;;;;4.20;2.25;;;16.20;60.90;;;;;;5050851;28;20029;-68
2022/02/08 10:58:43;;;;;;;4.07;2.08;;;16.20;61.00;;;;;;5049235;28;20029;-70
2022/02/08 11:01:17;;;;;;;3.13;1.98;;;16.20;61.00;;;;;;5049747;28;20487;-67
2022/02/08 11:04:02;;;;;;;3.53;1.70;;;16.20;61.00;;;;;;5052553;28;20147;-70
2022/02/08 11:06:33;;;;;;;4.80;1.85;;;16.30;61.10;;;;;;5044247;28;20033;-69
2022/02/08 11:09:10;;;;;;;4.80;2.42;;;16.30;61.00;;;;;;5046558;28;20104;-69
2022/02/08 11:17:06;;;;;;;3.90;1.92;;;16.30;61.00;;;;;;5048526;28;20571;-67
2022/02/08 11:22:30;;;;;;;3.55;1.60;;;16.30;60.80;;;;;;5048691;28;20128;-69
2022/02/08 11:25:22;;;;;;;4.60;1.67;;;16.30;60.90;;;;;;5047474;28;20025;-70
2022/02/08 11:27:55;;;;;;;7.18;1.98;;;16.30;60.90;;;;;;5045545;28;20032;-70
2022/02/08 11:30:38;;;;;;;3.53;1.50;;;16.20;60.70;;;;;;5029389;28;20045;-68
2022/02/08 11:39:29;;;;;;;2.25;1.60;;;16.30;60.50;;;;;;5040886;28;20407;-71
2022/02/08 11:42:54;;;;;;;4.00;1.50;;;16.30;60.40;;;;;;5029157;28;20060;-69
2022/02/08 12:02:59;;;;;;;3.92;1.65;;;16.30;59.90;;;;;;5037325;28;20035;-70
2022/02/08 12:06:32;;;;;;;2.13;1.20;;;16.30;59.80;;;;;;5046899;28;20443;-70
2022/02/08 12:08:20;;;;;;;2.55;1.30;;;16.30;59.70;;;;;;5030445;28;20283;-70
2022/02/08 12:10:57;;;;;;;2.42;1.35;;;16.30;59.70;;;;;;5053017;28;20412;-70
2022/02/08 12:13:44;;;;;;;2.75;1.40;;;16.30;59.70;;;;;;5052864;28;20051;-70
2022/02/08 12:27:04;;;;;;;2.35;1.27;;;16.30;59.60;;;;;;5052634;28;20094;-70
2022/02/08 12:30:44;;;;;;;1.58;1.08;;;16.20;59.50;;;;;;5049153;28;20039;-69
2022/02/08 12:52:16;;;;;;;2.08;1.23;;;16.30;59.20;;;;;;5042615;28;20079;-69
2022/02/08 12:54:41;;;;;;;1.17;0.70;;;16.30;59.30;;;;;;5051056;28;20103;-65
2022/02/08 12:57:25;;;;;;;2.40;1.30;;;16.20;59.20;;;;;;5051215;28;20047;-69
2022/02/08 13:00:20;;;;;;;1.75;0.90;;;16.20;59.20;;;;;;5051622;28;20017;-69
2022/02/08 14:01:31;;;;;;;2.10;0.95;;;16.20;59.70;;;;;;5046327;28;20032;-70
2022/02/08 14:05:49;;;;;;;1.67;0.90;;;16.30;61.10;;;;;;5048368;28;20120;-69
2022/02/08 14:08:26;;;;;;;1.73;0.93;;;16.30;61.20;;;;;;5047612;28;20033;-69
2022/02/08 14:13:42;;;;;;;0.85;0.55;;;16.30;61.00;;;;;;5047227;28;20033;-69
2022/02/08 14:34:11;;;;;;;3.10;0.95;;;16.40;60.50;;;;;;5047917;28;20713;-69
2022/02/08 15:05:27;;;;;;;1.33;0.57;;;16.40;60.40;;;;;;5046580;28;20115;-70
2022/02/08 15:08:54;;;;;;;2.92;0.75;;;16.40;60.40;;;;;;5039202;28;20159;-70
2022/02/08 15:11:19;;;;;;;3.22;0.82;;;16.40;60.40;;;;;;5047131;28;20516;-70
2022/02/08 15:13:48;;;;;;;2.35;1.00;;;16.40;60.40;;;;;;5046765;28;20028;-70
2022/02/08 15:16:34;;;;;;;1.25;0.73;;;16.40;60.40;;;;;;5046727;28;20695;-70
2022/02/08 15:19:00;;;;;;;1.33;0.63;;;16.40;60.40;;;;;;5046176;28;20055;-70
2022/02/08 15:21:32;;;;;;;0.95;0.88;;;16.40;60.40;;;;;;5046196;28;20733;-70
2022/02/08 15:23:58;;;;;;;1.92;1.02;;;16.40;60.60;;;;;;5046823;28;20426;-68
2022/02/08 15:26:23;;;;;;;1.10;0.55;;;16.40;60.50;;;;;;5046844;28;20072;-71
2022/02/08 15:28:49;;;;;;;0.70;0.50;;;16.40;60.50;;;;;;5046078;28;20514;-70
2022/02/08 15:31:17;;;;;;;1.35;0.80;;;16.40;60.50;;;;;;5028980;28;20017;-70
2022/02/08 15:33:42;;;;;;;1.25;0.77;;;16.40;60.40;;;;;;5046768;28;20055;-70
2022/02/08 15:36:08;;;;;;;1.45;0.70;;;16.40;61.00;;;;;;5047084;28;20033;-70
2022/02/08 15:38:36;;;;;;;1.95;0.77;;;16.40;60.20;;;;;;5046401;28;20025;-70
2022/02/08 15:41:02;;;;;;;1.17;0.60;;;16.40;60.00;;;;;;5046668;28;20040;-70
2022/02/08 15:43:28;;;;;;;0.75;0.60;;;16.40;59.90;;;;;;5046970;28;20770;-70
2022/02/08 15:45:56;;;;;;;1.67;0.65;;;16.50;59.90;;;;;;5048163;28;20111;-70
2022/02/08 15:48:23;;;;;;;1.35;0.80;;;16.40;59.80;;;;;;5044116;28;20025;-69
2022/02/08 15:50:57;;;;;;;1.73;0.70;;;16.40;59.70;;;;;;5049061;28;20139;-71
2022/02/08 15:53:33;;;;;;;0.93;0.80;;;16.40;59.60;;;;;;5046329;28;20048;-70
2022/02/08 16:00:05;;;;;;;1.20;0.88;;;16.50;59.60;;;;;;5048120;28;20163;-67
2022/02/08 16:01:26;;;;;;;1.23;0.70;;;16.40;59.40;;;;;;5048229;28;20029;-71
2022/02/08 16:12:26;;;;;;;0.93;0.80;;;16.30;59.80;;;;;;5046276;28;20104;-70
2022/02/08 16:25:32;;;;;;;0.85;0.60;;;16.40;59.60;;;;;;5046424;28;20040;-69
2022/02/08 16:57:05;;;;;;;0.90;0.80;;;16.40;59.60;;;;;;5052092;28;20123;-69
2022/02/08 16:59:34;;;;;;;1.85;0.77;;;16.50;59.70;;;;;;5051883;28;20036;-69
2022/02/08 17:02:03;;;;;;;2.33;0.68;;;16.50;59.60;;;;;;5032202;28;20032;-70
2022/02/08 17:04:29;;;;;;;0.80;0.60;;;16.50;59.70;;;;;;5049074;28;20029;-69
2022/02/08 17:06:54;;;;;;;3.17;0.90;;;16.50;59.60;;;;;;5031093;28;20021;-69
2022/02/08 17:09:33;;;;;;;0.90;0.77;;;16.50;59.60;;;;;;5048751;28;20033;-69
2022/02/08 17:12:10;;;;;;;1.25;0.80;;;16.50;59.60;;;;;;5049038;28;20029;-69
2022/02/08 17:37:26;;;;;;;2.60;0.70;;;16.50;59.90;;;;;;5048301;28;20558;-72
2022/02/08 17:49:37;;;;;;;3.42;0.70;;;16.50;60.10;;;;;;5047477;28;20021;-71
2022/02/08 17:52:03;;;;;;;1.40;0.90;;;16.50;60.10;;;;;;5048323;28;20403;-72
2022/02/08 17:54:28;;;;;;;2.58;1.00;;;16.50;60.20;;;;;;5048024;28;20456;-71
2022/02/08 17:56:56;;;;;;;1.92;1.10;;;16.50;60.10;;;;;;5048728;28;20021;-72
2022/02/08 17:59:24;;;;;;;2.97;0.90;;;16.50;60.10;;;;;;5047696;28;20021;-69
2022/02/08 18:01:50;;;;;;;2.88;0.85;;;16.50;60.10;;;;;;5047364;28;20123;-71
2022/02/08 18:04:16;;;;;;;3.10;0.88;;;16.50;60.10;;;;;;5048848;28;20054;-71
2022/02/08 18:06:42;;;;;;;2.22;0.80;;;16.50;60.00;;;;;;5048478;28;20032;-70
2022/02/08 18:09:07;;;;;;;1.05;0.80;;;16.50;59.90;;;;;;5047717;28;20025;-70
2022/02/08 18:11:38;;;;;;;1.88;0.80;;;16.50;59.90;;;;;;5047700;28;20021;-70
2022/02/08 18:14:06;;;;;;;3.10;0.98;;;16.60;59.90;;;;;;5040156;28;20028;-70
2022/02/08 18:16:34;;;;;;;1.20;0.88;;;16.50;59.80;;;;;;5030590;28;20025;-70
2022/02/08 18:19:08;;;;;;;2.08;0.90;;;16.50;59.80;;;;;;5047877;28;20059;-70
2022/02/08 18:21:38;;;;;;;1.45;0.90;;;16.50;59.70;;;;;;5047904;28;20032;-69
2022/02/08 18:50:26;;;;;;;4.35;0.85;;;16.50;59.70;;;;;;5047613;28;20035;-70
2022/02/08 18:57:25;;;;;;;2.33;0.85;;;16.50;59.50;;;;;;5047384;28;20079;-69
2022/02/08 19:18:37;;;;;;;2.33;0.82;;;16.50;60.10;;;;;;5043998;28;20035;-67
2022/02/08 19:23:32;;;;;;;2.05;1.40;;;16.50;59.40;;;;;;5048835;28;20055;-66
2022/02/08 19:25:57;;;;;;;2.97;0.90;;;16.50;59.50;;;;;;5048404;28;20021;-68
2022/02/08 19:28:22;;;;;;;1.85;0.70;;;16.60;59.60;;;;;;5046886;28;20039;-64
2022/02/08 19:30:48;;;;;;;1.65;0.80;;;16.50;59.80;;;;;;5046881;28;20539;-67
2022/02/08 19:33:14;;;;;;;1.88;1.30;;;16.50;59.80;;;;;;5047301;28;20078;-68
2022/02/08 19:35:41;;;;;;;5.22;1.20;;;16.60;59.80;;;;;;5046823;28;20032;-69
2022/02/08 19:38:09;;;;;;;4.25;1.00;;;16.50;59.70;;;;;;5046472;28;20041;-71
2022/02/08 19:40:35;;;;;;;2.05;0.93;;;16.50;59.70;;;;;;5047302;28;20116;-68
2022/02/08 19:43:00;;;;;;;3.13;1.30;;;16.50;59.60;;;;;;5046659;28;20519;-69
2022/02/08 19:45:27;;;;;;;2.42;1.13;;;16.50;59.60;;;;;;5046799;28;20029;-68
2022/02/08 19:47:52;;;;;;;2.28;0.98;;;16.50;59.60;;;;;;5046915;28;20108;-67
2022/02/08 19:50:18;;;;;;;1.75;1.15;;;16.50;59.50;;;;;;5045870;28;20078;-68
2022/02/08 19:52:44;;;;;;;1.90;1.08;;;16.50;59.50;;;;;;5046923;28;20025;-66
2022/02/08 19:58:24;;;;;;;8.02;2.80;;;16.50;59.50;;;;;;4967591;28;20699;-68
2022/02/08 20:01:54;;;;;;;13.30;5.68;;;16.50;59.70;;;;;;4980326;28;20034;-68
2022/02/08 20:04:00;;;;;;;19.27;8.68;;;16.50;60.30;;;;;;5022110;28;20029;-70
2022/02/08 20:06:26;;;;;;;18.70;8.07;;;16.50;61.10;;;;;;5042799;28;20047;-66
2022/02/08 20:08:52;;;;;;;19.35;8.02;;;16.50;61.70;;;;;;5046410;28;20025;-69
2022/02/08 20:11:17;;;;;;;20.35;8.88;;;16.50;61.90;;;;;;5047441;28;20036;-66
2022/02/08 20:13:51;;;;;;;29.67;7.72;;;16.60;62.20;;;;;;5051046;28;20016;-66